Time;durP1;ratioP1;P1;durP2;ratioP2;P2;SDS_P1;SDS_P2;PMS_P1;PMS_P2;Temp;Humidity;BMP_temperature;BMP_pressure;BME280_temperature;BME280_humidity;BME280_pressure;Samples;Min_cycle;Max_cycle;Signal;HPM_P1;HPM_P2
2024/04/13 00:01:32;;;;;;;;;;;;;;;3.72;100.00;101288.28;5524059;26;19932;-71
2024/04/13 00:03:58;;;;;;;;;;;;;;;3.68;100.00;101278.91;5491835;26;19931;-68
2024/04/13 00:06:23;;;;;;;;;;;;;;;3.66;100.00;101272.06;5524415;26;20389;-69
2024/04/13 00:08:49;;;;;;;;;;;;;;;3.62;100.00;101265.34;5523880;26;19928;-69
2024/04/13 00:11:15;;;;;;;;;;;;;;;3.61;100.00;101264.50;5524615;26;19939;-68
2024/04/13 00:13:40;;;;;;;;;;;;;;;3.62;100.00;101267.97;5492093;26;20332;-71
2024/04/13 00:16:06;;;;;;;;;;;;;;;3.62;100.00;101271.44;5523984;26;19928;-69
2024/04/13 00:18:34;;;;;;;;;;;;;;;3.62;100.00;101271.44;5523803;26;19934;-70
2024/04/13 00:21:00;;;;;;;;;;;;;;;3.61;100.00;101266.28;5524354;26;19931;-69
2024/04/13 00:23:25;;;;;;;;;;;;;;;3.59;100.00;101269.03;5493139;26;19939;-69
2024/04/13 00:25:51;;;;;;;;;;;;;;;3.58;100.00;101279.66;5492547;26;19955;-69
2024/04/13 00:28:17;;;;;;;;;;;;;;;3.57;100.00;101273.56;5527448;26;19938;-69
2024/04/13 00:30:42;;;;;;;;;;;;;;;3.56;100.00;101281.56;5527704;26;20375;-70
2024/04/13 00:33:09;;;;;;;;;;;;;;;3.53;100.00;101276.50;5495111;26;20003;-69
2024/04/13 00:35:35;;;;;;;;;;;;;;;3.49;100.00;101265.34;5494593;26;19927;-69
2024/04/13 00:38:02;;;;;;;;;;;;;;;3.48;100.00;101262.81;5527336;26;19934;-69
2024/04/13 00:40:28;;;;;;;;;;;;;;;3.48;100.00;101271.56;5495603;26;19939;-70
2024/04/13 00:43:04;;;;;;;;;;;;;;;3.46;100.00;101265.53;5527245;26;19927;-70
2024/04/13 00:45:42;;;;;;;;;;;;;;;3.44;100.00;101270.06;5527590;26;20389;-69
2024/04/13 00:48:08;;;;;;;;;;;;;;;3.43;100.00;101265.75;5527075;26;19935;-69
2024/04/13 00:50:33;;;;;;;;;;;;;;;3.41;100.00;101262.38;5527457;26;19996;-69
2024/04/13 00:52:59;;;;;;;;;;;;;;;3.35;100.00;101258.38;5527185;26;19927;-69
2024/04/13 00:55:25;;;;;;;;;;;;;;;3.33;100.00;101264.69;5526975;26;20523;-69
2024/04/13 00:57:51;;;;;;;;;;;;;;;3.32;100.00;101266.47;5494760;26;19927;-69
2024/04/13 01:00:19;;;;;;;;;;;;;;;3.33;100.00;101265.53;5495048;26;20343;-69
2024/04/13 01:02:45;;;;;;;;;;;;;;;3.30;100.00;101260.47;5495249;26;19935;-69
2024/04/13 01:05:13;;;;;;;;;;;;;;;3.28;100.00;101262.38;5494320;26;20271;-69
2024/04/13 01:07:39;;;;;;;;;;;;;;;3.21;100.00;101250.59;5494153;26;19931;-68
2024/04/13 01:10:05;;;;;;;;;;;;;;;3.19;100.00;101252.47;5494609;26;20351;-69
2024/04/13 01:12:31;;;;;;;;;;;;;;;3.22;100.00;101249.63;5527445;26;19939;-69
2024/04/13 01:14:56;;;;;;;;;;;;;;;3.24;100.00;101229.31;5527706;26;20355;-69
2024/04/13 01:17:22;;;;;;;;;;;;;;;3.28;100.00;101240.47;5494256;26;20003;-68
2024/04/13 01:19:47;;;;;;;;;;;;;;;3.30;100.00;101239.41;5526893;26;19934;-69
2024/04/13 01:22:12;;;;;;;;;;;;;;;3.30;100.00;101239.41;5526675;26;19927;-69
2024/04/13 01:24:40;;;;;;;;;;;;;;;3.28;100.00;101241.31;5527452;26;20278;-70
2024/04/13 01:27:06;;;;;;;;;;;;;;;3.29;100.00;101236.91;5494275;26;19936;-69
2024/04/13 01:29:32;;;;;;;;;;;;;;;3.29;100.00;101234.25;5527358;26;19938;-68
2024/04/13 01:31:57;;;;;;;;;;;;;;;3.29;100.00;101236.91;5530862;26;20490;-69
2024/04/13 01:34:23;;;;;;;;;;;;;;;3.24;100.00;101234.56;5530678;26;20386;-69
2024/04/13 01:36:48;;;;;;;;;;;;;;;3.23;100.00;101235.53;5531941;26;19928;-69
2024/04/13 01:39:13;;;;;;;;;;;;;;;3.24;100.00;101244.25;5529226;26;19939;-68
2024/04/13 01:41:40;;;;;;;;;;;;;;;3.20;100.00;101230.47;5526973;26;19931;-70
2024/04/13 01:44:06;;;;;;;;;;;;;;;3.13;100.00;101226.53;5527019;26;19935;-69
2024/04/13 01:46:35;;;;;;;;;;;;;;;3.11;100.00;101228.44;5526843;26;19934;-70
2024/04/13 01:49:04;;;;;;;;;;;;;;;3.12;100.00;101230.13;5526038;26;19927;-69
2024/04/13 01:51:34;;;;;;;;;;;;;;;3.11;100.00;101229.28;5494271;26;19927;-68
2024/04/13 01:53:59;;;;;;;;;;;;;;;3.08;100.00;101224.22;5526358;26;19928;-69
2024/04/13 01:56:24;;;;;;;;;;;;;;;3.07;100.00;101226.97;5526403;26;19934;-69
2024/04/13 01:58:50;;;;;;;;;;;;;;;3.08;100.00;101218.13;5526059;26;19939;-68
2024/04/13 02:01:15;;;;;;;;;;;;;;;3.06;100.00;101222.66;5527714;26;19935;-68
2024/04/13 02:03:41;;;;;;;;;;;;;;;3.05;100.00;101218.34;5493896;26;20070;-69
2024/04/13 02:06:08;;;;;;;;;;;;;;;3.04;100.00;101212.22;5526903;26;19953;-69
2024/04/13 02:08:34;;;;;;;;;;;;;;;3.04;100.00;101200.84;5463291;26;19927;-71
2024/04/13 02:11:00;;;;;;;;;;;;;;;3.04;100.00;101214.00;5525700;26;19928;-68
2024/04/13 02:13:26;;;;;;;;;;;;;;;3.03;100.00;101212.34;5493642;26;20273;-68
2024/04/13 02:15:51;;;;;;;;;;;;;;;3.02;100.00;101213.28;5526650;26;19950;-71
2024/04/13 02:18:17;;;;;;;;;;;;;;;3.04;100.00;101211.38;5527059;26;19987;-68
2024/04/13 02:20:43;;;;;;;;;;;;;;;3.02;100.00;101211.50;5526535;26;20320;-69
2024/04/13 02:23:09;;;;;;;;;;;;;;;3.01;100.00;101217.69;5526154;26;20371;-73
2024/04/13 02:25:36;;;;;;;;;;;;;;;3.01;100.00;101219.50;5526626;26;20227;-69
2024/04/13 02:28:02;;;;;;;;;;;;;;;3.02;100.00;101205.38;5527316;26;20386;-68
2024/04/13 02:30:28;;;;;;;;;;;;;;;3.04;100.00;101203.50;5527334;26;19946;-69
2024/04/13 02:32:53;;;;;;;;;;;;;;;3.06;100.00;101204.22;5527585;26;19927;-70
2024/04/13 02:35:19;;;;;;;;;;;;;;;3.08;100.00;101202.34;5525902;26;19996;-68
2024/04/13 02:37:45;;;;;;;;;;;;;;;3.09;100.00;101219.81;5525657;26;20286;-69
2024/04/13 02:40:10;;;;;;;;;;;;;;;3.09;100.00;101206.66;5525981;26;19955;-70
2024/04/13 02:42:36;;;;;;;;;;;;;;;3.09;100.00;101209.28;5525842;26;19927;-69
2024/04/13 02:45:02;;;;;;;;;;;;;;;3.13;100.00;101205.50;5525713;26;19934;-69
2024/04/13 02:47:28;;;;;;;;;;;;;;;3.16;100.00;101214.97;5525820;26;19931;-68
2024/04/13 02:49:53;;;;;;;;;;;;;;;3.17;100.00;101220.13;5525664;26;20281;-70
2024/04/13 02:52:20;;;;;;;;;;;;;;;3.18;100.00;101213.94;5493181;26;19935;-69
2024/04/13 02:54:45;;;;;;;;;;;;;;;3.19;100.00;101215.63;5525740;26;19928;-71
2024/04/13 02:57:12;;;;;;;;;;;;;;;3.24;100.00;101224.06;5537762;26;20020;-68
2024/04/13 02:59:38;;;;;;;;;;;;;;;3.29;100.00;101224.56;5503465;26;19984;-68
2024/04/13 03:02:04;;;;;;;;;;;;;;;3.32;100.00;101223.53;5493716;26;19935;-68
2024/04/13 03:04:31;;;;;;;;;;;;;;;3.31;100.00;101220.03;5526077;26;19933;-70
2024/04/13 03:06:59;;;;;;;;;;;;;;;3.34;100.00;101225.09;5525501;26;19934;-69
2024/04/13 03:09:25;;;;;;;;;;;;;;;3.40;100.00;101229.94;5493071;26;19991;-68
2024/04/13 03:11:50;;;;;;;;;;;;;;;3.46;100.00;101233.09;5493013;26;20375;-69
2024/04/13 03:14:16;;;;;;;;;;;;;;;3.49;100.00;101227.63;5492896;26;19934;-69
2024/04/13 03:16:41;;;;;;;;;;;;;;;3.50;100.00;101213.53;5525252;26;19928;-68
2024/04/13 03:19:06;;;;;;;;;;;;;;;3.55;100.00;101212.25;5525369;26;19928;-70
2024/04/13 03:21:35;;;;;;;;;;;;;;;3.61;100.00;101200.44;5525782;25;19928;-71
2024/04/13 03:24:01;;;;;;;;;;;;;;;3.67;100.00;101211.38;5525266;25;19964;-68
2024/04/13 03:26:26;;;;;;;;;;;;;;;3.73;100.00;101225.91;5537878;25;20386;-68
2024/04/13 03:28:52;;;;;;;;;;;;;;;3.78;100.00;101225.63;5562902;25;20001;-71
2024/04/13 03:31:17;;;;;;;;;;;;;;;3.83;100.00;101223.50;5563101;25;19950;-69
2024/04/13 03:33:42;;;;;;;;;;;;;;;3.83;100.00;101221.69;5563513;25;20255;-69
2024/04/13 03:36:08;;;;;;;;;;;;;;;3.87;100.00;101223.16;5567565;25;19927;-69
2024/04/13 03:38:33;;;;;;;;;;;;;;;3.94;100.00;101226.22;5566434;25;19927;-69
2024/04/13 03:41:02;;;;;;;;;;;;;;;4.03;100.00;101236.09;5529148;25;19939;-70
2024/04/13 03:43:28;;;;;;;;;;;;;;;4.16;100.00;101230.78;5562802;25;19927;-70
2024/04/13 03:45:53;;;;;;;;;;;;;;;4.28;100.00;101227.25;5563088;25;19927;-70
2024/04/13 03:48:19;;;;;;;;;;;;;;;4.39;100.00;101232.63;5531523;25;20053;-69
2024/04/13 03:50:44;;;;;;;;;;;;;;;4.52;100.00;101230.75;5562566;25;20362;-70
2024/04/13 03:53:09;;;;;;;;;;;;;;;4.63;100.00;101222.09;5530379;25;19927;-70
2024/04/13 03:55:35;;;;;;;;;;;;;;;4.71;100.00;101224.16;5563381;25;19927;-69
2024/04/13 03:58:00;;;;;;;;;;;;;;;4.68;100.00;101216.47;5564004;25;19927;-72
2024/04/13 04:00:25;;;;;;;;;;;;;;;4.59;100.00;101218.81;5560806;25;19935;-70
2024/04/13 04:02:51;;;;;;;;;;;;;;;4.51;100.00;101223.81;5562138;25;19933;-71
2024/04/13 04:05:17;;;;;;;;;;;;;;;4.43;100.00;101215.63;5562120;25;19995;-69
2024/04/13 04:07:43;;;;;;;;;;;;;;;4.37;100.00;101212.59;5563710;25;19939;-69
2024/04/13 04:10:11;;;;;;;;;;;;;;;4.31;100.00;101208.59;5528521;25;19933;-73
2024/04/13 04:12:37;;;;;;;;;;;;;;;4.29;100.00;101207.84;5561389;25;20266;-70
2024/04/13 04:15:02;;;;;;;;;;;;;;;4.28;100.00;101206.19;5528437;25;19930;-68
2024/04/13 04:17:29;;;;;;;;;;;;;;;4.27;100.00;101215.88;5560137;25;19942;-69
2024/04/13 04:19:54;;;;;;;;;;;;;;;4.28;100.00;101219.34;5529479;25;20247;-68
2024/04/13 04:22:19;;;;;;;;;;;;;;;4.29;100.00;101213.13;5562447;25;19927;-70
2024/04/13 04:24:45;;;;;;;;;;;;;;;4.29;100.00;101223.69;5564059;25;19926;-68
2024/04/13 04:27:10;;;;;;;;;;;;;;;4.30;100.00;101222.72;5565268;25;19927;-70
2024/04/13 04:29:36;;;;;;;;;;;;;;;4.35;100.00;101225.91;5534232;25;19927;-70
2024/04/13 04:32:01;;;;;;;;;;;;;;;4.40;100.00;101241.38;5584471;25;19947;-71
2024/04/13 04:34:27;;;;;;;;;;;;;;;4.44;100.00;101238.41;5580162;25;20004;-70
2024/04/13 04:36:52;;;;;;;;;;;;;;;4.48;100.00;101233.75;5577227;25;20339;-69
2024/04/13 04:39:18;;;;;;;;;;;;;;;4.46;100.00;101231.22;5563944;25;19927;-70
2024/04/13 04:41:43;;;;;;;;;;;;;;;4.47;100.00;101230.25;5561737;25;19927;-71
2024/04/13 04:44:08;;;;;;;;;;;;;;;4.50;100.00;101230.03;5528854;25;19927;-70
2024/04/13 04:46:34;;;;;;;;;;;;;;;4.53;100.00;101234.25;5561850;25;20365;-70
2024/04/13 04:48:59;;;;;;;;;;;;;;;4.52;100.00;101236.03;5561439;25;20394;-70
2024/04/13 04:51:24;;;;;;;;;;;;;;;4.54;100.00;101234.13;5560515;25;20290;-71
2024/04/13 04:53:50;;;;;;;;;;;;;;;4.57;100.00;101233.91;5527130;25;19934;-70
2024/04/13 04:56:15;;;;;;;;;;;;;;;4.63;100.00;101222.94;5528004;25;20275;-70
2024/04/13 04:58:41;;;;;;;;;;;;;;;4.69;100.00;101220.78;5527145;25;19927;-70
2024/04/13 05:01:07;;;;;;;;;;;;;;;4.75;100.00;101230.88;5527230;25;19926;-70
2024/04/13 05:03:32;;;;;;;;;;;;;;;4.85;100.00;101230.06;5526470;25;19933;-70
2024/04/13 05:05:57;;;;;;;;;;;;;;;4.97;100.00;101230.97;5559741;25;19927;-71
2024/04/13 05:08:23;;;;;;;;;;;;;;;5.05;100.00;101228.59;5559297;25;20298;-71
2024/04/13 05:10:48;;;;;;;;;;;;;;;5.11;100.00;101233.41;5560158;25;19929;-74
2024/04/13 05:13:14;;;;;;;;;;;;;;;5.18;100.00;101226.69;5562699;25;19927;-70
2024/04/13 05:15:40;;;;;;;;;;;;;;;5.26;100.00;101232.25;5563447;25;19927;-72
2024/04/13 05:18:06;;;;;;;;;;;;;;;5.33;100.00;101223.84;5530895;25;19927;-71
2024/04/13 05:20:34;;;;;;;;;;;;;;;5.42;100.00;101225.78;5563321;25;19934;-70
2024/04/13 05:23:00;;;;;;;;;;;;;;;5.51;100.00;101215.38;5563419;25;20034;-69
2024/04/13 05:25:26;;;;;;;;;;;;;;;5.63;100.00;101224.13;5551460;25;19931;-69
2024/04/13 05:27:51;;;;;;;;;;;;;;;5.76;100.00;101214.25;5550098;25;19933;-68
2024/04/13 05:30:19;;;;;;;;;;;;;;;5.94;100.00;101211.16;5526175;26;19935;-71
2024/04/13 05:32:45;;;;;;;;;;;;;;;6.25;100.00;101202.47;5549063;25;19927;-69
2024/04/13 05:35:13;;;;;;;;;;;;;;;6.67;100.00;101202.59;5534081;25;19935;-69
2024/04/13 05:37:40;;;;;;;;;;;;;;;7.18;100.00;101207.13;5541314;25;19927;-72
2024/04/13 05:40:05;;;;;;;;;;;;;;;7.57;100.00;101210.84;5539040;25;19938;-67
2024/04/13 05:42:31;;;;;;;;;;;;;;;7.87;100.00;101212.66;5511221;25;20382;-70
2024/04/13 05:44:58;;;;;;;;;;;;;;;8.02;100.00;101205.97;5547816;25;19935;-74
2024/04/13 05:47:23;;;;;;;;;;;;;;;8.19;100.00;101201.84;5536096;25;19935;-73
2024/04/13 05:49:50;;;;;;;;;;;;;;;8.27;100.00;101200.19;5518801;25;19998;-71
2024/04/13 05:52:15;;;;;;;;;;;;;;;8.32;100.00;101192.66;5540528;25;19934;-73
2024/04/13 05:54:41;;;;;;;;;;;;;;;8.34;97.09;101181.94;5541629;25;19927;-71
2024/04/13 05:57:07;;;;;;;;;;;;;;;8.26;93.06;101177.28;5546284;25;20025;-72
2024/04/13 05:59:32;;;;;;;;;;;;;;;8.18;94.15;101179.78;5518923;25;19927;-70
2024/04/13 06:01:59;;;;;;;;;;;;;;;8.05;92.32;101180.03;5509223;25;19927;-71
2024/04/13 06:04:25;;;;;;;;;;;;;;;7.95;93.78;101196.91;5533396;25;19932;-70
2024/04/13 06:06:50;;;;;;;;;;;;;;;7.99;93.87;101190.34;5545996;25;20311;-70
2024/04/13 06:09:16;;;;;;;;;;;;;;;8.08;95.97;101178.91;5542137;25;19939;-71
2024/04/13 06:11:41;;;;;;;;;;;;;;;8.20;96.37;101177.84;5514786;25;20278;-72
2024/04/13 06:14:06;;;;;;;;;;;;;;;8.32;96.14;101186.50;5550872;25;19935;-73
2024/04/13 06:16:33;;;;;;;;;;;;;;;8.36;92.02;101172.84;5547527;25;19943;-70
2024/04/13 06:18:58;;;;;;;;;;;;;;;8.33;90.94;101172.25;5540016;25;19933;-73
2024/04/13 06:21:23;;;;;;;;;;;;;;;8.31;91.34;101161.78;5543586;25;19927;-71
2024/04/13 06:23:50;;;;;;;;;;;;;;;8.32;90.67;101159.97;5534535;25;19934;-69
2024/04/13 06:26:15;;;;;;;;;;;;;;;8.30;89.85;101154.78;5511737;25;20003;-70
2024/04/13 06:28:41;;;;;;;;;;;;;;;8.40;92.21;101161.97;5540928;25;19939;-70
2024/04/13 06:31:06;;;;;;;;;;;;;;;8.51;92.08;101161.84;5545450;25;20396;-70
2024/04/13 06:33:32;;;;;;;;;;;;;;;8.62;90.25;101151.06;5548137;25;20272;-71
2024/04/13 06:35:57;;;;;;;;;;;;;;;8.65;91.60;101162.22;5542640;25;20496;-70
2024/04/13 06:38:26;;;;;;;;;;;;;;;8.71;91.44;101173.31;5485924;25;20248;-71
2024/04/13 06:40:54;;;;;;;;;;;;;;;8.73;89.79;101164.22;5538229;25;19931;-71
2024/04/13 06:43:20;;;;;;;;;;;;;;;8.81;91.10;101169.66;5544033;25;19928;-71
2024/04/13 06:45:48;;;;;;;;;;;;;;;8.80;88.96;101154.69;5514854;25;20248;-70
2024/04/13 06:48:14;;;;;;;;;;;;;;;8.71;89.23;101157.38;5544308;25;19931;-73
2024/04/13 06:50:42;;;;;;;;;;;;;;;8.75;90.66;101156.09;5544368;25;19994;-70
2024/04/13 06:53:08;;;;;;;;;;;;;;;8.86;91.69;101164.75;5509149;25;19927;-70
2024/04/13 06:55:33;;;;;;;;;;;;;;;8.96;90.19;101154.97;5541192;25;19935;-70
2024/04/13 06:57:59;;;;;;;;;;;;;;;9.07;90.76;101153.13;5508361;25;20016;-71
2024/04/13 07:00:25;;;;;;;;;;;;;;;9.23;91.06;101161.31;5539789;25;19927;-72
2024/04/13 07:02:50;;;;;;;;;;;;;;;9.32;88.40;101149.84;5506364;25;20389;-72
2024/04/13 07:05:15;;;;;;;;;;;;;;;9.46;87.34;101159.97;5544800;25;19934;-72
2024/04/13 07:07:41;;;;;;;;;;;;;;;9.53;86.06;101152.25;5508772;25;19938;-70
2024/04/13 07:10:06;;;;;;;;;;;;;;;9.61;87.16;101161.19;5546042;25;19927;-69
2024/04/13 07:12:32;;;;;;;;;;;;;;;9.62;87.28;101162.88;5545080;25;19935;-70
2024/04/13 07:14:58;;;;;;;;;;;;;;;9.68;84.91;101160.59;5550629;25;20312;-72
2024/04/13 07:17:24;;;;;;;;;;;;;;;9.72;84.57;101156.66;5540876;25;20321;-68
2024/04/13 07:19:49;;;;;;;;;;;;;;;9.68;84.26;101144.66;5464023;26;20379;-71
2024/04/13 07:22:14;;;;;;;;;;;;;;;9.73;85.48;101140.56;5513822;25;20233;-71
2024/04/13 07:24:40;;;;;;;;;;;;;;;9.87;84.05;101149.88;5508862;25;19996;-72
2024/04/13 07:27:05;;;;;;;;;;;;;;;10.08;83.87;101131.81;5547170;25;20289;-70
2024/04/13 07:29:31;;;;;;;;;;;;;;;10.37;83.55;101130.78;5475073;25;19927;-70
2024/04/13 07:31:56;;;;;;;;;;;;;;;10.65;83.90;101135.03;5562811;25;20259;-70
2024/04/13 07:34:21;;;;;;;;;;;;;;;10.88;80.37;101131.88;5532723;25;20443;-72
2024/04/13 07:36:47;;;;;;;;;;;;;;;10.86;78.01;101129.38;5539586;25;19927;-70
2024/04/13 07:39:13;;;;;;;;;;;;;;;10.94;77.31;101123.25;5547001;25;20275;-72
2024/04/13 07:41:39;;;;;;;;;;;;;;;11.01;76.98;101130.50;5508460;25;20011;-70
2024/04/13 07:44:04;;;;;;;;;;;;;;;10.91;76.40;101128.91;5510173;25;19951;-70
2024/04/13 07:46:29;;;;;;;;;;;;;;;10.81;78.23;101124.53;5544087;25;20276;-70
2024/04/13 07:48:55;;;;;;;;;;;;;;;10.82;76.75;101123.53;5538402;25;19942;-69
2024/04/13 07:51:20;;;;;;;;;;;;;;;10.80;77.27;101119.34;5527479;25;19963;-71
2024/04/13 07:53:46;;;;;;;;;;;;;;;10.89;79.13;101121.06;5492179;26;19928;-75
2024/04/13 07:56:11;;;;;;;;;;;;;;;10.89;76.33;101121.06;5508517;25;20000;-73
2024/04/13 07:58:36;;;;;;;;;;;;;;;10.82;75.50;101115.53;5524628;26;20335;-74
2024/04/13 08:01:03;;;;;;;;;;;;;;;10.66;76.49;101118.06;5542184;25;20343;-72
2024/04/13 08:03:28;;;;;;;;;;;;;;;10.68;77.83;101112.56;5556417;25;20567;-72
2024/04/13 08:05:54;;;;;;;;;;;;;;;10.70;77.17;101118.63;5551053;25;19933;-74
2024/04/13 08:08:19;;;;;;;;;;;;;;;10.70;76.87;101107.97;5546167;25;20370;-70
2024/04/13 08:10:45;;;;;;;;;;;;;;;10.60;76.49;101112.53;5551142;25;20383;-74
2024/04/13 08:13:10;;;;;;;;;;;;;;;10.59;77.80;101109.03;5535655;25;20396;-71
2024/04/13 08:15:41;;;;;;;;;;;;;;;10.61;78.08;101107.03;5560345;25;19927;-71
2024/04/13 08:18:07;;;;;;;;;;;;;;;10.59;76.95;101108.19;5552008;25;19937;-75
2024/04/13 08:20:33;;;;;;;;;;;;;;;10.54;76.77;101106.00;5494184;26;20406;-76
2024/04/13 08:22:59;;;;;;;;;;;;;;;10.56;76.63;101109.34;5510553;25;19968;-71
2024/04/13 08:25:24;;;;;;;;;;;;;;;10.60;76.63;101110.69;5530879;25;20286;-74
2024/04/13 08:27:50;;;;;;;;;;;;;;;10.59;77.28;101102.84;5530602;25;19938;-72
2024/04/13 08:30:15;;;;;;;;;;;;;;;10.59;76.49;101100.19;5539635;25;19927;-69
2024/04/13 08:32:44;;;;;;;;;;;;;;;10.56;75.17;101096.00;5543850;25;19934;-70
2024/04/13 08:35:10;;;;;;;;;;;;;;;10.62;75.32;101092.72;5533513;25;19996;-70
2024/04/13 08:37:37;;;;;;;;;;;;;;;10.73;76.01;101094.31;5558222;25;20315;-74
2024/04/13 08:40:03;;;;;;;;;;;;;;;10.84;76.59;101092.22;5523241;25;20370;-70
2024/04/13 08:42:33;;;;;;;;;;;;;;;10.63;75.19;101062.44;5525251;26;19935;-71
2024/04/13 08:44:58;;;;;;;;;;;;;;;10.86;75.25;101100.91;5527331;25;19927;-74
2024/04/13 08:47:26;;;;;;;;;;;;;;;10.91;75.88;101110.25;5523653;26;19928;-72
2024/04/13 08:49:52;;;;;;;;;;;;;;;11.00;75.59;101101.34;5532611;25;19995;-73
2024/04/13 08:52:18;;;;;;;;;;;;;;;11.05;74.96;101099.03;5548664;25;20017;-73
2024/04/13 08:54:45;;;;;;;;;;;;;;;11.03;73.40;101095.69;5554499;25;19942;-69
2024/04/13 08:57:15;;;;;;;;;;;;;;;11.04;74.75;101098.19;5545937;25;19934;-71
2024/04/13 08:59:41;;;;;;;;;;;;;;;11.07;74.07;101097.88;5529347;25;20286;-72
2024/04/13 09:02:09;;;;;;;;;;;;;;;11.03;74.19;101090.38;5528851;25;19932;-70
2024/04/13 09:04:35;;;;;;;;;;;;;;;11.04;74.79;101089.38;5540817;25;19943;-72
2024/04/13 09:07:00;;;;;;;;;;;;;;;11.03;74.58;101085.03;5495412;26;19928;-70
2024/04/13 09:09:26;;;;;;;;;;;;;;;11.03;74.10;101090.38;5492318;26;19994;-71
2024/04/13 09:11:52;;;;;;;;;;;;;;;11.07;74.32;101091.72;5525021;26;19927;-72
2024/04/13 09:14:17;;;;;;;;;;;;;;;11.15;74.09;101086.41;5526108;26;19935;-71
2024/04/13 09:16:45;;;;;;;;;;;;;;;11.16;73.17;101082.75;5526290;26;19938;-71
2024/04/13 09:19:10;;;;;;;;;;;;;;;11.17;73.77;101076.44;5526104;26;19927;-69
2024/04/13 09:21:36;;;;;;;;;;;;;;;11.26;73.98;101080.81;5527918;26;19939;-73
2024/04/13 09:24:04;;;;;;;;;;;;;;;11.29;73.47;101085.84;5527328;26;19928;-71
2024/04/13 09:26:29;;;;;;;;;;;;;;;11.35;73.51;101073.69;5525891;26;20454;-71
2024/04/13 09:28:54;;;;;;;;;;;;;;;11.45;72.38;101069.06;5525452;26;19927;-70
2024/04/13 09:31:20;;;;;;;;;;;;;;;11.55;72.03;101059.09;5525788;26;20002;-70
2024/04/13 09:33:55;;;;;;;;;;;;;;;11.64;71.37;101059.97;5493107;26;20262;-71
2024/04/13 09:36:24;;;;;;;;;;;;;;;11.64;70.30;101060.81;5524978;26;20267;-70
2024/04/13 09:38:50;;;;;;;;;;;;;;;11.75;70.43;101055.16;5526455;26;20347;-71
2024/04/13 09:41:15;;;;;;;;;;;;;;;11.84;70.08;101052.53;5525905;26;19927;-72
2024/04/13 09:43:41;;;;;;;;;;;;;;;11.89;67.78;101061.75;5525560;26;19927;-73
2024/04/13 09:46:06;;;;;;;;;;;;;;;11.87;67.98;101055.75;5525603;26;19927;-71
2024/04/13 09:48:31;;;;;;;;;;;;;;;11.96;67.89;101053.91;5525685;26;19935;-71
2024/04/13 09:50:58;;;;;;;;;;;;;;;11.90;67.88;101058.06;5525810;26;19935;-72
2024/04/13 09:53:24;;;;;;;;;;;;;;;11.98;67.80;101050.06;5527498;25;20802;-71
2024/04/13 09:55:49;;;;;;;;;;;;;;;12.16;68.51;101051.78;5524265;25;19927;-72
2024/04/13 09:58:15;;;;;;;;;;;;;;;12.27;66.22;101049.59;5545406;25;19927;-70
2024/04/13 10:00:41;;;;;;;;;;;;;;;12.38;66.57;101051.09;5586519;25;20256;-71
2024/04/13 10:03:06;;;;;;;;;;;;;;;12.45;66.22;101041.44;5585806;25;19935;-72
2024/04/13 10:05:33;;;;;;;;;;;;;;;12.51;65.12;101040.75;5569431;25;19927;-71
2024/04/13 10:07:59;;;;;;;;;;;;;;;12.48;64.67;101043.75;5564503;25;19933;-71
2024/04/13 10:10:26;;;;;;;;;;;;;;;12.53;64.66;101048.59;5566032;25;19935;-72
2024/04/13 10:12:54;;;;;;;;;;;;;;;12.52;62.29;101042.41;5563174;25;19956;-72
2024/04/13 10:15:19;;;;;;;;;;;;;;;12.47;63.80;101046.59;5529949;25;19959;-73
2024/04/13 10:17:45;;;;;;;;;;;;;;;12.51;63.60;101043.41;5530186;25;19935;-69
2024/04/13 10:20:11;;;;;;;;;;;;;;;12.54;63.08;101036.91;5530503;25;19927;-70
2024/04/13 10:22:36;;;;;;;;;;;;;;;12.63;65.08;101039.38;5563477;25;19933;-72
2024/04/13 10:25:02;;;;;;;;;;;;;;;12.70;62.98;101040.38;5500024;25;20363;-72
2024/04/13 10:27:31;;;;;;;;;;;;;;;12.79;63.45;101037.72;5562310;25;19951;-71
2024/04/13 10:29:59;;;;;;;;;;;;;;;12.86;63.20;101033.34;5562780;25;19937;-71
2024/04/13 10:32:24;;;;;;;;;;;;;;;12.93;63.77;101027.13;5562659;25;19927;-72
2024/04/13 10:34:51;;;;;;;;;;;;;;;13.03;63.19;101026.97;5563116;25;21026;-73
2024/04/13 10:37:24;;;;;;;;;;;;;;;13.10;61.68;101025.25;5563008;25;20578;-72
2024/04/13 10:39:53;;;;;;;;;;;;;;;13.00;61.03;101025.44;5530464;25;20362;-71
2024/04/13 10:42:18;;;;;;;;;;;;;;;12.94;60.80;101025.28;5529588;25;20315;-70
2024/04/13 10:44:44;;;;;;;;;;;;;;;12.88;61.66;101017.97;5529199;25;19926;-71
2024/04/13 10:47:12;;;;;;;;;;;;;;;12.88;61.30;101023.31;5563153;25;19972;-71
2024/04/13 10:49:39;;;;;;;;;;;;;;;12.79;61.46;101022.50;5566613;25;19957;-72
2024/04/13 10:52:04;;;;;;;;;;;;;;;12.88;62.21;101024.16;5563529;25;19938;-71
2024/04/13 10:54:30;;;;;;;;;;;;;;;12.86;61.68;101033.34;5563111;25;20359;-71
2024/04/13 10:56:56;;;;;;;;;;;;;;;12.78;62.38;101031.53;5531542;25;20015;-71
2024/04/13 10:59:23;;;;;;;;;;;;;;;12.86;63.77;101031.50;5562143;25;19927;-72
2024/04/13 11:01:49;;;;;;;;;;;;;;;12.91;62.51;101039.84;5529038;25;20030;-72
2024/04/13 11:04:14;;;;;;;;;;;;;;;12.81;63.38;101041.03;5529111;25;19939;-72
2024/04/13 11:06:41;;;;;;;;;;;;;;;12.74;63.42;101040.06;5529134;25;20251;-71
2024/04/13 11:09:07;;;;;;;;;;;;;;;12.65;64.34;101042.72;5562291;25;20024;-72
2024/04/13 11:11:32;;;;;;;;;;;;;;;12.66;65.57;101044.38;5563306;25;19927;-71
2024/04/13 11:13:57;;;;;;;;;;;;;;;12.73;66.61;101038.41;5562208;25;19998;-72
2024/04/13 11:16:23;;;;;;;;;;;;;;;12.76;66.89;101035.38;5528523;25;19933;-70
2024/04/13 11:18:48;;;;;;;;;;;;;;;12.58;67.77;101030.22;5528534;25;19935;-72
2024/04/13 11:21:16;;;;;;;;;;;;;;;12.58;69.04;101035.56;5560831;25;19931;-73
2024/04/13 11:23:41;;;;;;;;;;;;;;;12.56;70.51;101038.41;5561220;25;19939;-72
2024/04/13 11:26:07;;;;;;;;;;;;;;;12.48;72.12;101030.41;5561710;25;20366;-71
2024/04/13 11:28:33;;;;;;;;;;;;;;;12.32;71.21;101035.75;5562721;25;20373;-74
2024/04/13 11:30:59;;;;;;;;;;;;;;;12.15;72.54;101040.25;5561713;25;19994;-70
2024/04/13 11:33:25;;;;;;;;;;;;;;;12.20;73.13;101040.59;5561546;25;20277;-70
2024/04/13 11:35:57;;;;;;;;;;;;;;;12.23;72.49;101042.09;5561058;25;19938;-72
2024/04/13 11:38:22;;;;;;;;;;;;;;;12.35;72.64;101035.41;5529110;25;19930;-72
2024/04/13 11:40:51;;;;;;;;;;;;;;;12.27;71.71;101046.94;5528384;25;20316;-71
2024/04/13 11:43:17;;;;;;;;;;;;;;;12.18;72.79;101047.09;5561834;25;19927;-71
2024/04/13 11:45:43;;;;;;;;;;;;;;;12.02;72.51;101043.41;5542155;25;19934;-70
2024/04/13 11:48:09;;;;;;;;;;;;;;;11.98;73.71;101047.41;5523745;26;19928;-72
2024/04/13 11:50:35;;;;;;;;;;;;;;;12.13;74.01;101057.41;5523714;26;19927;-72
2024/04/13 11:53:00;;;;;;;;;;;;;;;12.18;74.03;101045.25;5523457;26;20327;-71
2024/04/13 11:55:29;;;;;;;;;;;;;;;12.32;74.00;101051.75;5523685;26;20314;-71
2024/04/13 11:57:54;;;;;;;;;;;;;;;12.24;73.66;101046.44;5492790;26;19995;-73
2024/04/13 12:00:20;;;;;;;;;;;;;;;12.14;75.19;101048.41;5524003;26;20276;-71
2024/04/13 12:02:46;;;;;;;;;;;;;;;11.95;76.52;101049.56;5491751;26;20370;-71
2024/04/13 12:05:12;;;;;;;;;;;;;;;11.91;77.46;101042.91;5491273;26;20481;-71
2024/04/13 12:07:37;;;;;;;;;;;;;;;12.21;76.37;101038.75;5523597;26;20377;-71
2024/04/13 12:10:03;;;;;;;;;;;;;;;12.46;76.17;101036.91;5523744;26;19976;-71
2024/04/13 12:12:29;;;;;;;;;;;;;;;12.57;75.72;101037.41;5523980;26;19934;-72
2024/04/13 12:14:54;;;;;;;;;;;;;;;12.81;75.16;101038.38;5524821;26;19927;-73
2024/04/13 12:17:22;;;;;;;;;;;;;;;13.12;73.99;101028.59;5525457;26;19999;-74
2024/04/13 12:19:51;;;;;;;;;;;;;;;12.75;73.99;101036.38;5492134;26;19927;-74
2024/04/13 12:22:19;;;;;;;;;;;;;;;12.39;75.91;101026.03;5526700;26;19935;-73
2024/04/13 12:24:44;;;;;;;;;;;;;;;12.32;77.12;101030.41;5528194;26;20331;-72
2024/04/13 12:27:09;;;;;;;;;;;;;;;12.38;77.30;101021.72;5527574;26;19976;-74
2024/04/13 12:29:35;;;;;;;;;;;;;;;12.34;78.71;101028.38;5495779;26;19935;-72
2024/04/13 12:32:01;;;;;;;;;;;;;;;12.25;79.30;101024.06;5468972;26;19939;-73